createdAt,value
2018-06-25T00:01:39.142Z,13.70
2018-06-25T00:04:07.801Z,13.50
2018-06-25T00:06:36.386Z,13.40
2018-06-25T00:09:07.574Z,13.80
2018-06-25T00:11:36.151Z,13.50
2018-06-25T00:14:04.970Z,13.50
2018-06-25T00:16:33.641Z,13.40
2018-06-25T00:19:02.200Z,13.60
2018-06-25T00:21:30.804Z,13.70
2018-06-25T00:23:59.709Z,13.50
2018-06-25T00:26:28.281Z,13.70
2018-06-25T00:28:58.918Z,13.50
2018-06-25T00:31:27.487Z,13.70
2018-06-25T00:33:56.051Z,13.60
2018-06-25T00:36:24.632Z,13.60
2018-06-25T00:38:53.311Z,13.80
2018-06-25T00:41:21.996Z,13.60
2018-06-25T00:43:50.595Z,13.60
2018-06-25T00:46:19.141Z,13.50
2018-06-25T00:48:48.348Z,13.70
2018-06-25T00:53:45.082Z,13.70
2018-06-25T00:56:13.606Z,13.70
2018-06-25T00:59:56.033Z,13.50
2018-06-25T01:02:24.872Z,13.60
2018-06-25T01:04:53.377Z,13.70
2018-06-25T01:07:21.928Z,13.80
2018-06-25T01:12:18.687Z,13.70
2018-06-25T01:17:15.447Z,13.80
2018-06-25T01:22:12.251Z,13.60
2018-06-25T01:24:40.744Z,13.80
2018-06-25T01:27:10.524Z,13.80
2018-06-25T01:29:41.324Z,13.90
2018-06-25T01:32:09.892Z,14.10
2018-06-25T01:34:38.576Z,14.10
2018-06-25T01:37:07.118Z,13.90
2018-06-25T01:39:35.606Z,13.90
2018-06-25T01:42:04.427Z,13.80
2018-06-25T01:44:32.893Z,14.10
2018-06-25T01:47:01.415Z,14.10
2018-06-25T01:49:29.926Z,13.90
2018-06-25T01:51:58.476Z,14.10
2018-06-25T01:54:27.093Z,14.00
2018-06-25T01:56:55.636Z,13.90
2018-06-25T01:59:24.170Z,14.00
2018-06-25T02:01:53.123Z,14.00
2018-06-25T02:04:21.872Z,14.00
2018-06-25T02:06:50.402Z,14.00
2018-06-25T02:09:18.888Z,13.90
2018-06-25T02:11:47.362Z,14.00
2018-06-25T02:14:15.874Z,14.00
2018-06-25T02:16:44.698Z,14.00
2018-06-25T02:19:13.218Z,14.20
2018-06-25T02:21:41.744Z,14.00
2018-06-25T02:24:10.246Z,14.10
2018-06-25T02:26:40.088Z,14.10
2018-06-25T02:29:08.605Z,14.20
2018-06-25T02:31:37.120Z,14.10
2018-06-25T02:34:06.342Z,14.40
2018-06-25T02:36:34.890Z,14.20
2018-06-25T02:39:03.698Z,14.30
2018-06-25T02:41:32.224Z,14.30
2018-06-25T02:46:28.972Z,14.40
2018-06-25T02:48:57.522Z,14.40
2018-06-25T02:51:25.974Z,14.40
2018-06-25T02:53:54.597Z,14.50
2018-06-25T02:56:23.128Z,14.40
2018-06-25T02:58:51.586Z,14.50
2018-06-25T03:01:20.186Z,14.60
2018-06-25T03:03:48.791Z,14.40
2018-06-25T03:06:17.525Z,14.60
2018-06-25T03:08:46.081Z,14.50
2018-06-25T03:11:15.210Z,14.50
2018-06-25T03:13:43.725Z,14.50
2018-06-25T03:16:12.200Z,14.50
2018-06-25T03:18:40.701Z,14.50
2018-06-25T03:21:09.247Z,14.50
2018-06-25T03:23:38.025Z,14.50
2018-06-25T03:26:06.617Z,14.50
2018-06-25T03:28:35.127Z,14.60
2018-06-25T03:31:03.685Z,14.60
2018-06-25T03:33:32.309Z,14.40
2018-06-25T03:36:01.237Z,14.60
2018-06-25T03:40:57.951Z,14.60
2018-06-25T03:43:26.437Z,14.60
2018-06-25T03:45:54.997Z,14.60
2018-06-25T03:48:23.512Z,14.70
2018-06-25T03:50:52.214Z,14.70
2018-06-25T03:53:20.777Z,14.70
2018-06-25T03:55:49.344Z,14.60
2018-06-25T03:58:17.905Z,14.60
2018-06-25T04:00:46.452Z,14.70
2018-06-25T04:03:15.610Z,14.90
2018-06-25T04:05:44.152Z,14.70
2018-06-25T04:08:12.706Z,14.70
2018-06-25T04:10:41.351Z,14.70
2018-06-25T04:16:41.204Z,14.80
2018-06-25T04:19:09.744Z,14.80
2018-06-25T04:21:38.583Z,14.80
2018-06-25T04:24:07.797Z,14.90
2018-06-25T04:26:36.458Z,14.80
2018-06-25T04:29:04.982Z,14.90
2018-06-25T04:31:34.398Z,14.90
2018-06-25T04:34:02.925Z,14.90
2018-06-25T04:36:31.433Z,14.80
2018-06-25T04:38:59.991Z,14.80
2018-06-25T04:41:28.585Z,14.80
2018-06-25T04:43:57.195Z,14.90
2018-06-25T04:46:26.218Z,14.90
2018-06-25T04:48:54.821Z,14.90
2018-06-25T04:53:51.525Z,15.00
2018-06-25T04:56:20.288Z,15.00
2018-06-25T04:58:49.019Z,15.30
2018-06-25T05:01:17.604Z,15.10
2018-06-25T05:03:46.162Z,15.20
2018-06-25T05:06:14.677Z,15.10
2018-06-25T05:08:45.281Z,15.20
2018-06-25T05:11:13.851Z,15.30
2018-06-25T05:13:43.519Z,15.20
2018-06-25T05:18:40.297Z,15.20
2018-06-25T05:21:09.965Z,15.30
2018-06-25T05:23:38.675Z,15.30
2018-06-25T05:26:07.740Z,15.30
2018-06-25T05:28:36.513Z,15.40
2018-06-25T05:31:05.033Z,15.40
2018-06-25T05:33:33.651Z,15.60
2018-06-25T05:36:02.235Z,15.60
2018-06-25T05:38:30.724Z,15.60
2018-06-25T05:40:59.283Z,15.70
2018-06-25T05:43:28.189Z,15.60
2018-06-25T05:45:56.898Z,15.60
2018-06-25T05:48:25.416Z,15.60
2018-06-25T05:50:54.144Z,15.70
2018-06-25T05:53:22.709Z,15.70
2018-06-25T05:55:51.217Z,15.70
2018-06-25T05:58:20.167Z,15.90
2018-06-25T06:00:48.684Z,15.90
2018-06-25T06:03:17.268Z,15.90
2018-06-25T06:05:45.953Z,16.00
2018-06-25T06:08:14.468Z,15.90
2018-06-25T06:10:42.983Z,15.90
2018-06-25T06:13:11.570Z,16.00
2018-06-25T06:15:40.328Z,15.90
2018-06-25T06:23:05.890Z,15.90
2018-06-25T06:25:34.453Z,15.90
2018-06-25T06:28:03.195Z,15.90
2018-06-25T06:30:31.966Z,16.00
2018-06-25T06:33:00.485Z,16.00
2018-06-25T06:37:57.332Z,16.10
2018-06-25T06:40:26.443Z,16.00
2018-06-25T06:42:55.262Z,16.20
2018-06-25T06:45:25.970Z,16.30
2018-06-25T06:47:54.508Z,16.20
2018-06-25T06:50:23.198Z,16.20
2018-06-25T06:52:52.407Z,16.10
2018-06-25T06:55:21.114Z,16.10
2018-06-25T07:00:17.922Z,16.20
2018-06-25T07:02:46.464Z,16.30
2018-06-25T07:05:15.048Z,16.30
2018-06-25T07:07:43.570Z,16.20
2018-06-25T07:10:12.115Z,16.20
2018-06-25T07:12:40.810Z,16.20
2018-06-25T07:15:09.582Z,16.30
2018-06-25T07:17:38.112Z,16.40
2018-06-25T07:20:06.651Z,16.30
2018-06-25T07:22:35.152Z,16.30
2018-06-25T07:25:03.788Z,16.40
2018-06-25T07:30:01.312Z,16.40
2018-06-25T07:32:29.833Z,16.40
2018-06-25T07:37:26.626Z,16.50
2018-06-25T07:39:56.077Z,16.60
2018-06-25T07:42:24.594Z,16.60
2018-06-25T07:44:53.127Z,16.70
2018-06-25T07:47:21.707Z,16.80
2018-06-25T07:49:50.219Z,16.80
2018-06-25T07:52:19.681Z,16.90
2018-06-25T07:54:48.195Z,16.70
2018-06-25T07:57:16.726Z,16.60
2018-06-25T07:59:46.159Z,16.60
2018-06-25T08:02:14.707Z,16.90
2018-06-25T08:04:43.411Z,16.80
2018-06-25T08:07:12.081Z,17.00
2018-06-25T08:09:40.753Z,17.00
2018-06-25T08:12:09.452Z,16.90
2018-06-25T08:14:37.987Z,16.90
2018-06-25T08:17:07.135Z,17.00
2018-06-25T08:19:35.632Z,17.00
2018-06-25T08:22:04.224Z,17.00
2018-06-25T08:24:32.745Z,16.90
2018-06-25T08:27:01.267Z,16.90
2018-06-25T08:29:29.815Z,17.00
2018-06-25T08:31:58.379Z,16.90
2018-06-25T08:34:27.162Z,17.00
2018-06-25T08:36:55.594Z,17.00
2018-06-25T08:39:24.288Z,16.90
2018-06-25T08:41:52.866Z,16.80
2018-06-25T08:44:21.696Z,16.70
2018-06-25T08:46:51.016Z,16.70
2018-06-25T08:49:19.519Z,16.70
2018-06-25T08:51:48.164Z,16.80
2018-06-25T08:54:16.698Z,16.90
2018-06-25T08:56:45.201Z,17.10
2018-06-25T08:59:13.755Z,17.10
2018-06-25T09:01:42.294Z,17.20
2018-06-25T09:04:10.850Z,17.40
2018-06-25T09:06:39.413Z,17.60
2018-06-25T09:09:09.902Z,17.50
2018-06-25T09:11:38.438Z,17.60
2018-06-25T09:14:07.362Z,17.70
2018-06-25T09:16:36.028Z,17.60
2018-06-25T09:19:04.794Z,17.70
2018-06-25T09:21:33.345Z,17.90
2018-06-25T09:24:01.948Z,17.80
2018-06-25T09:26:30.518Z,17.80
2018-06-25T09:28:59.026Z,18.00
2018-06-25T09:31:27.610Z,17.80
2018-06-25T09:33:56.814Z,17.90
2018-06-25T09:36:25.360Z,17.80
2018-06-25T09:38:53.923Z,17.90
2018-06-25T09:41:22.564Z,17.80
2018-06-25T09:43:53.231Z,17.70
2018-06-25T09:46:21.936Z,17.80
2018-06-25T09:48:50.512Z,17.90
2018-06-25T09:51:19.013Z,18.00
2018-06-25T09:53:47.685Z,18.00
2018-06-25T09:56:16.310Z,18.00
2018-06-25T09:58:45.174Z,18.30
2018-06-25T10:01:14.828Z,18.40
2018-06-25T10:03:43.331Z,18.50
2018-06-25T10:06:11.940Z,18.80
2018-06-25T10:11:09.107Z,18.80
2018-06-25T10:13:37.673Z,18.90
2018-06-25T10:18:34.467Z,19.00
2018-06-25T10:21:02.963Z,18.70
2018-06-25T10:23:31.536Z,18.70
2018-06-25T10:26:00.107Z,18.70
2018-06-25T10:28:28.717Z,18.60
2018-06-25T10:30:57.415Z,18.70
2018-06-25T10:33:25.992Z,18.70
2018-06-25T10:35:54.568Z,18.70
2018-06-25T10:38:23.085Z,18.90
2018-06-25T10:40:51.747Z,19.00
2018-06-25T10:43:20.435Z,18.90
2018-06-25T10:45:48.984Z,19.00
2018-06-25T10:48:17.754Z,19.00
2018-06-25T10:50:46.467Z,19.10
2018-06-25T10:53:15.314Z,19.10
2018-06-25T10:55:44.253Z,19.10
2018-06-25T10:58:12.784Z,19.00
2018-06-25T11:00:41.304Z,19.20
2018-06-25T11:03:10.198Z,19.20
2018-06-25T11:05:38.779Z,19.30
2018-06-25T11:08:07.350Z,19.20
2018-06-25T11:10:35.878Z,19.10
2018-06-25T11:13:04.504Z,19.10
2018-06-25T11:15:33.049Z,19.20
2018-06-25T11:18:01.584Z,19.30
2018-06-25T11:20:30.376Z,19.40
2018-06-25T11:22:58.960Z,19.40
2018-06-25T11:25:27.900Z,19.40
2018-06-25T11:27:56.754Z,19.50
2018-06-25T11:30:25.586Z,19.50
2018-06-25T11:32:54.214Z,19.60
2018-06-25T11:35:22.799Z,19.60
2018-06-25T11:37:52.722Z,19.70
2018-06-25T11:40:22.227Z,19.70
2018-06-25T11:42:50.594Z,19.60
2018-06-25T11:45:19.180Z,19.60
2018-06-25T11:47:47.699Z,19.70
2018-06-25T11:52:44.786Z,19.90
2018-06-25T11:55:13.825Z,20.00
2018-06-25T11:57:42.392Z,19.90
2018-06-25T12:00:11.591Z,20.10
2018-06-25T12:02:40.391Z,20.20
2018-06-25T12:05:09.783Z,20.30
2018-06-25T12:07:38.291Z,20.20
2018-06-25T12:10:06.848Z,20.10
2018-06-25T12:12:35.578Z,20.30
2018-06-25T12:15:04.195Z,20.50
2018-06-25T12:17:32.825Z,20.40
2018-06-25T12:20:01.515Z,20.40
2018-06-25T12:22:30.046Z,20.40
2018-06-25T12:24:58.619Z,20.40
2018-06-25T12:27:27.237Z,20.40
2018-06-25T12:29:55.836Z,20.40
2018-06-25T12:32:24.379Z,20.60
2018-06-25T12:34:52.909Z,20.60
2018-06-25T12:37:21.442Z,20.60
2018-06-25T12:39:49.982Z,20.50
2018-06-25T12:42:18.561Z,20.70
2018-06-25T12:44:47.434Z,20.80
2018-06-25T12:47:16.073Z,20.80
2018-06-25T12:49:44.684Z,20.90
2018-06-25T12:52:13.191Z,20.90
2018-06-25T12:54:41.732Z,21.00
2018-06-25T12:57:10.381Z,20.90
2018-06-25T12:59:39.410Z,21.00
2018-06-25T13:02:07.978Z,20.80
2018-06-25T13:04:36.629Z,20.90
2018-06-25T13:07:05.483Z,21.00
2018-06-25T13:09:34.315Z,20.90
2018-06-25T13:12:02.917Z,21.00
2018-06-25T13:14:31.604Z,20.90
2018-06-25T13:17:00.154Z,21.00
2018-06-25T13:19:29.052Z,21.00
2018-06-25T13:21:58.653Z,21.10
2018-06-25T13:24:27.390Z,21.30
2018-06-25T13:26:55.934Z,21.30
2018-06-25T13:29:24.565Z,21.10
2018-06-25T13:31:53.136Z,21.10
2018-06-25T13:34:21.664Z,21.20
2018-06-25T13:36:50.192Z,21.40
2018-06-25T13:39:18.732Z,21.50
2018-06-25T13:41:47.272Z,21.40
2018-06-25T13:44:15.811Z,21.40
2018-06-25T13:46:44.431Z,21.40
2018-06-25T13:49:12.971Z,21.40
2018-06-25T13:51:42.860Z,21.40
2018-06-25T13:54:12.185Z,21.50
2018-06-25T13:56:40.836Z,21.60
2018-06-25T13:59:09.383Z,21.50
2018-06-25T14:01:38.204Z,21.50
2018-06-25T14:04:06.903Z,21.50
2018-06-25T14:06:36.369Z,21.50
2018-06-25T14:09:07.808Z,21.50
2018-06-25T14:11:36.320Z,21.40
2018-06-25T14:14:06.162Z,21.70
2018-06-25T14:16:35.405Z,21.80
2018-06-25T14:19:03.833Z,21.80
2018-06-25T14:21:32.405Z,21.70
2018-06-25T14:24:06.350Z,22.00
2018-06-25T14:26:40.183Z,21.80
2018-06-25T14:29:13.854Z,21.90
2018-06-25T14:31:42.735Z,21.70
2018-06-25T14:34:16.530Z,21.60
2018-06-25T14:36:45.082Z,21.60
2018-06-25T14:39:13.627Z,21.70
2018-06-25T14:44:10.902Z,21.80
2018-06-25T14:46:39.744Z,21.70
2018-06-25T14:49:08.332Z,21.90
2018-06-25T14:51:36.877Z,21.90
2018-06-25T14:54:05.429Z,21.90
2018-06-25T14:59:02.239Z,21.80
2018-06-25T15:01:30.759Z,21.80
2018-06-25T15:03:59.582Z,21.80
2018-06-25T15:06:28.136Z,21.90
2018-06-25T15:08:56.642Z,21.90
2018-06-25T15:11:25.271Z,22.00
2018-06-25T15:13:53.827Z,22.10
2018-06-25T15:16:22.492Z,22.20
2018-06-25T15:18:51.040Z,22.10
2018-06-25T15:21:19.646Z,22.20
2018-06-25T15:23:48.202Z,22.10
2018-06-25T15:26:16.786Z,22.20
2018-06-25T15:28:45.393Z,22.30
2018-06-25T15:31:13.936Z,22.20
2018-06-25T15:33:42.505Z,22.10
2018-06-25T15:36:11.610Z,22.10
2018-06-25T15:41:08.304Z,21.90
2018-06-25T15:43:37.083Z,21.80
2018-06-25T15:46:06.225Z,21.90
2018-06-25T15:48:34.744Z,22.10
2018-06-25T15:51:03.336Z,21.90
2018-06-25T15:53:32.182Z,21.80
2018-06-25T15:56:00.747Z,22.00
2018-06-25T15:58:29.477Z,22.00
2018-06-25T16:00:58.025Z,22.00
2018-06-25T16:03:26.574Z,21.80
2018-06-25T16:05:55.077Z,21.70
2018-06-25T16:08:24.688Z,21.80
2018-06-25T16:10:53.307Z,21.70
2018-06-25T16:13:21.870Z,21.80
2018-06-25T16:15:50.674Z,21.80
2018-06-25T16:18:19.203Z,21.70
2018-06-25T16:20:47.746Z,21.60
2018-06-25T16:23:16.284Z,21.50
2018-06-25T16:25:44.892Z,21.70
2018-06-25T16:28:13.595Z,21.50
2018-06-25T16:33:10.357Z,21.40
2018-06-25T16:38:07.412Z,21.40
2018-06-25T16:43:04.345Z,21.30
2018-06-25T16:45:32.892Z,21.40
2018-06-25T16:48:01.498Z,21.30
2018-06-25T16:50:30.099Z,21.20
2018-06-25T16:52:58.614Z,21.30
2018-06-25T16:55:27.154Z,21.30
2018-06-25T16:57:55.717Z,21.30
2018-06-25T17:00:24.450Z,21.40
2018-06-25T17:02:53.062Z,21.10
2018-06-25T17:05:21.854Z,21.10
2018-06-25T17:07:50.641Z,21.20
2018-06-25T17:10:19.428Z,21.20
2018-06-25T17:12:48.009Z,21.30
2018-06-25T17:15:16.699Z,21.20
2018-06-25T17:17:45.254Z,21.10
2018-06-25T17:20:13.896Z,20.90
2018-06-25T17:22:42.449Z,20.70
2018-06-25T17:25:10.977Z,20.80
2018-06-25T17:27:39.654Z,20.50
2018-06-25T17:30:08.582Z,20.50
2018-06-25T17:32:37.263Z,20.40
2018-06-25T17:35:05.813Z,20.30
2018-06-25T17:37:34.422Z,20.30
2018-06-25T17:42:31.274Z,20.30
2018-06-25T17:44:59.858Z,20.20
2018-06-25T17:47:28.470Z,20.20
2018-06-25T17:49:57.002Z,20.20
2018-06-25T17:52:25.833Z,20.10
2018-06-25T17:54:54.696Z,20.10
2018-06-25T17:57:23.285Z,20.00
2018-06-25T17:59:51.824Z,20.00
2018-06-25T18:02:20.344Z,19.90
2018-06-25T18:04:48.898Z,20.00
2018-06-25T18:07:17.654Z,20.00
2018-06-25T18:09:46.418Z,19.90
2018-06-25T18:12:15.412Z,19.90
2018-06-25T18:14:44.203Z,19.80
2018-06-25T18:17:13.104Z,20.10
2018-06-25T18:19:41.682Z,19.90
2018-06-25T18:22:10.214Z,19.70
2018-06-25T18:24:39.024Z,19.50
2018-06-25T18:27:07.608Z,19.40
2018-06-25T18:29:36.132Z,19.30
2018-06-25T18:32:04.753Z,19.20
2018-06-25T18:34:33.531Z,19.20
2018-06-25T18:37:02.203Z,19.10
2018-06-25T18:39:30.900Z,19.10
2018-06-25T18:42:00.816Z,19.10
2018-06-25T18:44:29.426Z,19.00
2018-06-25T18:46:58.021Z,19.00
2018-06-25T18:49:26.604Z,18.90
2018-06-25T18:51:55.500Z,18.80
2018-06-25T18:54:25.339Z,18.80
2018-06-25T18:59:22.239Z,18.90
2018-06-25T19:01:50.833Z,18.80
2018-06-25T19:04:19.491Z,18.70
2018-06-25T19:09:16.282Z,18.60
2018-06-25T19:11:45.126Z,18.70
2018-06-25T19:14:13.670Z,18.70
2018-06-25T19:16:42.186Z,18.60
2018-06-25T19:19:10.731Z,18.40
2018-06-25T19:21:39.296Z,18.30
2018-06-25T19:24:08.027Z,18.30
2018-06-25T19:29:05.284Z,18.10
2018-06-25T19:31:34.196Z,18.00
2018-06-25T19:34:03.083Z,18.00
2018-06-25T19:36:31.958Z,17.90
2018-06-25T19:39:01.463Z,17.80
2018-06-25T19:41:30.073Z,17.70
2018-06-25T19:43:58.709Z,17.70
2018-06-25T19:46:27.688Z,17.60
2018-06-25T19:48:56.353Z,17.60
2018-06-25T19:51:25.269Z,17.50
2018-06-25T19:53:54.160Z,17.40
2018-06-25T19:56:22.811Z,17.40
2018-06-25T19:58:51.430Z,17.40
2018-06-25T20:01:20.724Z,17.30
2018-06-25T20:03:50.033Z,17.30
2018-06-25T20:06:19.333Z,17.20
2018-06-25T20:08:48.580Z,17.20
2018-06-25T20:11:17.555Z,17.10
2018-06-25T20:13:46.159Z,17.10
2018-06-25T20:16:15.002Z,17.00
2018-06-25T20:18:43.539Z,17.00
2018-06-25T20:21:12.207Z,16.90
2018-06-25T20:23:40.787Z,16.90
2018-06-25T20:26:09.728Z,16.80
2018-06-25T20:28:38.293Z,16.80
2018-06-25T20:31:06.889Z,16.70
2018-06-25T20:33:35.484Z,16.60
2018-06-25T20:36:04.100Z,16.60
2018-06-25T20:38:32.640Z,16.50
2018-06-25T20:41:01.203Z,16.50
2018-06-25T20:43:29.772Z,16.50
2018-06-25T20:45:58.524Z,16.40
2018-06-25T20:48:27.308Z,16.30
2018-06-25T20:50:55.865Z,16.20
2018-06-25T20:55:52.735Z,16.10
2018-06-25T20:58:21.663Z,16.00
2018-06-25T21:00:50.665Z,15.90
2018-06-25T21:03:19.560Z,15.90
2018-06-25T21:05:48.118Z,15.80
2018-06-25T21:08:16.681Z,15.70
2018-06-25T21:13:14.074Z,15.60
2018-06-25T21:15:42.747Z,15.60
2018-06-25T21:18:11.385Z,15.50
2018-06-25T21:20:39.934Z,15.50
2018-06-25T21:23:08.534Z,15.50
2018-06-25T21:25:37.257Z,15.40
2018-06-25T21:28:05.822Z,15.40
2018-06-25T21:30:34.988Z,15.30
2018-06-25T21:33:03.638Z,15.30
2018-06-25T21:35:32.161Z,15.20
2018-06-25T21:38:01.419Z,15.20
2018-06-25T21:40:30.134Z,15.20
2018-06-25T21:42:58.839Z,15.10
2018-06-25T21:45:27.607Z,15.10
2018-06-25T21:47:56.194Z,15.00
2018-06-25T21:50:24.750Z,15.00
2018-06-25T21:52:53.264Z,14.90
2018-06-25T21:55:21.804Z,14.90
2018-06-25T21:57:50.356Z,14.90
2018-06-25T22:00:19.012Z,14.90
2018-06-25T22:02:48.058Z,14.80
2018-06-25T22:05:16.644Z,14.80
2018-06-25T22:07:45.244Z,14.80
2018-06-25T22:10:13.750Z,14.80
2018-06-25T22:12:42.268Z,14.70
2018-06-25T22:15:10.776Z,14.70
2018-06-25T22:17:39.334Z,14.80
2018-06-25T22:20:07.869Z,14.70
2018-06-25T22:22:36.446Z,14.60
2018-06-25T22:25:04.985Z,14.60
2018-06-25T22:27:33.503Z,14.60
2018-06-25T22:30:02.073Z,14.50
2018-06-25T22:32:30.570Z,14.60
2018-06-25T22:34:59.095Z,14.60
2018-06-25T22:37:28.237Z,14.60
2018-06-25T22:39:57.138Z,14.50
2018-06-25T22:42:25.611Z,14.50
2018-06-25T22:44:54.334Z,14.30
2018-06-25T22:47:22.849Z,14.50
2018-06-25T22:49:51.571Z,14.40
2018-06-25T22:52:20.215Z,14.50
2018-06-25T22:54:48.737Z,14.40
2018-06-25T22:57:17.293Z,14.40
2018-06-25T22:59:45.934Z,14.40
2018-06-25T23:02:14.513Z,14.40
2018-06-25T23:04:43.204Z,14.30
2018-06-25T23:07:11.746Z,14.30
2018-06-25T23:09:40.402Z,14.30
2018-06-25T23:12:08.999Z,14.20
2018-06-25T23:14:37.732Z,14.20
2018-06-25T23:17:06.495Z,14.20
2018-06-25T23:19:35.030Z,14.20
2018-06-25T23:22:03.555Z,14.20
2018-06-25T23:24:32.098Z,14.10
2018-06-25T23:27:00.573Z,14.20
2018-06-25T23:29:29.124Z,14.10
2018-06-25T23:31:57.691Z,14.20
2018-06-25T23:34:26.226Z,14.30
2018-06-25T23:36:54.737Z,14.20
2018-06-25T23:39:23.555Z,14.50
2018-06-25T23:41:53.340Z,14.20
2018-06-25T23:44:22.225Z,14.20
2018-06-25T23:49:19.347Z,14.00
2018-06-25T23:51:47.951Z,14.20
2018-06-25T23:54:16.886Z,14.10
2018-06-25T23:56:45.512Z,14.10
2018-06-25T23:59:14.005Z,14.10
